sensor_id;sensor_type;location;lat;lon;timestamp;temperature;humidity
51853;DHT22;37894;53.172;6.598;2023-04-29T00:02:33;8.60;99.90
51853;DHT22;37894;53.172;6.598;2023-04-29T00:04:59;9.40;99.90
51853;DHT22;37894;53.172;6.598;2023-04-29T00:12:17;10.30;99.90
51853;DHT22;37894;53.172;6.598;2023-04-29T00:31:48;9.20;99.90
51853;DHT22;37894;53.172;6.598;2023-04-29T00:34:13;9.00;99.90
51853;DHT22;37894;53.172;6.598;2023-04-29T00:36:39;8.80;99.90
51853;DHT22;37894;53.172;6.598;2023-04-29T00:46:24;8.90;99.90
51853;DHT22;37894;53.172;6.598;2023-04-29T00:48:50;9.10;99.90
51853;DHT22;37894;53.172;6.598;2023-04-29T00:51:17;8.90;99.90
51853;DHT22;37894;53.172;6.598;2023-04-29T01:03:30;9.30;99.90
51853;DHT22;37894;53.172;6.598;2023-04-29T01:09:23;9.20;99.90
51853;DHT22;37894;53.172;6.598;2023-04-29T01:12:05;8.70;99.90
51853;DHT22;37894;53.172;6.598;2023-04-29T01:17:05;8.90;99.90
51853;DHT22;37894;53.172;6.598;2023-04-29T01:19:47;8.80;99.90
51853;DHT22;37894;53.172;6.598;2023-04-29T01:27:28;8.80;99.90
51853;DHT22;37894;53.172;6.598;2023-04-29T01:33:04;8.70;99.90
51853;DHT22;37894;53.172;6.598;2023-04-29T01:36:03;8.30;99.90
51853;DHT22;37894;53.172;6.598;2023-04-29T01:42:06;8.70;99.90
51853;DHT22;37894;53.172;6.598;2023-04-29T01:44:35;8.50;99.90
51853;DHT22;37894;53.172;6.598;2023-04-29T01:47:01;8.60;99.90
51853;DHT22;37894;53.172;6.598;2023-04-29T01:49:27;9.70;99.90
51853;DHT22;37894;53.172;6.598;2023-04-29T01:56:47;8.60;99.90
51853;DHT22;37894;53.172;6.598;2023-04-29T01:59:13;8.70;99.90
51853;DHT22;37894;53.172;6.598;2023-04-29T02:01:38;8.70;99.90
51853;DHT22;37894;53.172;6.598;2023-04-29T02:08:59;8.40;99.90
51853;DHT22;37894;53.172;6.598;2023-04-29T02:11:25;7.90;99.90
51853;DHT22;37894;53.172;6.598;2023-04-29T02:13:51;8.20;99.90
51853;DHT22;37894;53.172;6.598;2023-04-29T02:21:09;8.40;99.90
51853;DHT22;37894;53.172;6.598;2023-04-29T02:28:30;9.20;99.90
51853;DHT22;37894;53.172;6.598;2023-04-29T02:30:56;8.20;99.90
51853;DHT22;37894;53.172;6.598;2023-04-29T02:38:14;8.10;99.90
51853;DHT22;37894;53.172;6.598;2023-04-29T02:40:41;8.00;99.90
51853;DHT22;37894;53.172;6.598;2023-04-29T02:45:34;7.80;99.90
51853;DHT22;37894;53.172;6.598;2023-04-29T02:55:19;8.20;99.90
51853;DHT22;37894;53.172;6.598;2023-04-29T03:00:11;7.50;99.90
51853;DHT22;37894;53.172;6.598;2023-04-29T03:07:30;8.10;99.90
51853;DHT22;37894;53.172;6.598;2023-04-29T03:09:56;8.40;99.90
51853;DHT22;37894;53.172;6.598;2023-04-29T03:12:22;8.10;99.90
51853;DHT22;37894;53.172;6.598;2023-04-29T03:19:40;8.40;99.90
51853;DHT22;37894;53.172;6.598;2023-04-29T03:22:06;7.50;99.90
51853;DHT22;37894;53.172;6.598;2023-04-29T03:24:36;8.20;99.90
51853;DHT22;37894;53.172;6.598;2023-04-29T03:27:02;8.50;99.90
51853;DHT22;37894;53.172;6.598;2023-04-29T03:29:29;8.20;99.90
51853;DHT22;37894;53.172;6.598;2023-04-29T03:34:22;8.20;99.90
51853;DHT22;37894;53.172;6.598;2023-04-29T03:36:49;8.10;99.90
51853;DHT22;37894;53.172;6.598;2023-04-29T03:39:16;8.20;99.90
51853;DHT22;37894;53.172;6.598;2023-04-29T03:41:41;8.20;99.90
51853;DHT22;37894;53.172;6.598;2023-04-29T03:44:07;8.50;99.90
51853;DHT22;37894;53.172;6.598;2023-04-29T03:51:25;8.00;99.90
51853;DHT22;37894;53.172;6.598;2023-04-29T03:53:53;8.40;99.90
51853;DHT22;37894;53.172;6.598;2023-04-29T04:06:03;8.40;99.90
51853;DHT22;37894;53.172;6.598;2023-04-29T04:08:29;8.10;99.90
51853;DHT22;37894;53.172;6.598;2023-04-29T04:15:53;8.10;99.90
51853;DHT22;37894;53.172;6.598;2023-04-29T04:23:12;8.40;99.90
51853;DHT22;37894;53.172;6.598;2023-04-29T04:30:29;8.40;99.90
51853;DHT22;37894;53.172;6.598;2023-04-29T04:32:55;8.50;99.90
51853;DHT22;37894;53.172;6.598;2023-04-29T04:37:47;8.60;99.90
51853;DHT22;37894;53.172;6.598;2023-04-29T04:40:13;9.20;99.90
51853;DHT22;37894;53.172;6.598;2023-04-29T04:45:05;8.40;99.90
51853;DHT22;37894;53.172;6.598;2023-04-29T04:47:31;8.60;99.90
51853;DHT22;37894;53.172;6.598;2023-04-29T04:49:56;8.40;99.90
51853;DHT22;37894;53.172;6.598;2023-04-29T04:52:22;8.40;99.90
51853;DHT22;37894;53.172;6.598;2023-04-29T04:59:41;8.20;99.90
51853;DHT22;37894;53.172;6.598;2023-04-29T05:02:07;7.90;99.90
51853;DHT22;37894;53.172;6.598;2023-04-29T05:04:33;8.40;99.90
51853;DHT22;37894;53.172;6.598;2023-04-29T05:06:58;8.70;99.90
51853;DHT22;37894;53.172;6.598;2023-04-29T05:16:43;8.60;99.90
51853;DHT22;37894;53.172;6.598;2023-04-29T05:19:11;8.50;99.90
51853;DHT22;37894;53.172;6.598;2023-04-29T05:21:36;8.60;99.90
51853;DHT22;37894;53.172;6.598;2023-04-29T05:26:28;8.60;99.90
51853;DHT22;37894;53.172;6.598;2023-04-29T05:31:20;8.90;99.90
51853;DHT22;37894;53.172;6.598;2023-04-29T05:36:12;8.60;99.90
51853;DHT22;37894;53.172;6.598;2023-04-29T05:43:30;8.70;99.90
51853;DHT22;37894;53.172;6.598;2023-04-29T05:48:22;8.60;99.90
51853;DHT22;37894;53.172;6.598;2023-04-29T05:50:48;7.80;99.90
51853;DHT22;37894;53.172;6.598;2023-04-29T05:55:39;8.30;99.90
51853;DHT22;37894;53.172;6.598;2023-04-29T05:58:09;8.90;99.90
51853;DHT22;37894;53.172;6.598;2023-04-29T06:00:34;9.10;99.90
51853;DHT22;37894;53.172;6.598;2023-04-29T06:05:26;8.60;99.90
51853;DHT22;37894;53.172;6.598;2023-04-29T06:10:18;9.20;99.90
51853;DHT22;37894;53.172;6.598;2023-04-29T06:15:11;9.00;99.90
51853;DHT22;37894;53.172;6.598;2023-04-29T06:17:36;9.20;99.90
51853;DHT22;37894;53.172;6.598;2023-04-29T06:20:02;9.00;99.90
51853;DHT22;37894;53.172;6.598;2023-04-29T06:22:28;9.20;99.90
51853;DHT22;37894;53.172;6.598;2023-04-29T06:24:54;9.20;99.90
51853;DHT22;37894;53.172;6.598;2023-04-29T06:27:20;9.10;99.90
51853;DHT22;37894;53.172;6.598;2023-04-29T06:29:45;9.30;99.90
51853;DHT22;37894;53.172;6.598;2023-04-29T06:32:11;10.40;99.90
51853;DHT22;37894;53.172;6.598;2023-04-29T06:34:38;9.30;99.90
51853;DHT22;37894;53.172;6.598;2023-04-29T06:37:04;9.60;99.90
51853;DHT22;37894;53.172;6.598;2023-04-29T06:41:56;9.40;99.90
51853;DHT22;37894;53.172;6.598;2023-04-29T06:44:23;9.60;99.90
51853;DHT22;37894;53.172;6.598;2023-04-29T06:49:15;9.10;99.90
51853;DHT22;37894;53.172;6.598;2023-04-29T06:56:33;9.40;99.90
51853;DHT22;37894;53.172;6.598;2023-04-29T06:58:59;10.40;99.90
51853;DHT22;37894;53.172;6.598;2023-04-29T07:01:24;10.00;99.90
51853;DHT22;37894;53.172;6.598;2023-04-29T07:03:50;10.20;99.90
51853;DHT22;37894;53.172;6.598;2023-04-29T07:06:16;10.20;99.90
51853;DHT22;37894;53.172;6.598;2023-04-29T07:08:42;9.70;99.90
51853;DHT22;37894;53.172;6.598;2023-04-29T07:13:34;11.50;99.90
51853;DHT22;37894;53.172;6.598;2023-04-29T07:15:59;10.50;99.90
51853;DHT22;37894;53.172;6.598;2023-04-29T07:18:25;10.80;99.90
51853;DHT22;37894;53.172;6.598;2023-04-29T07:23:17;10.90;99.90
51853;DHT22;37894;53.172;6.598;2023-04-29T07:33:01;11.30;99.90
51853;DHT22;37894;53.172;6.598;2023-04-29T07:37:55;11.50;99.90
51853;DHT22;37894;53.172;6.598;2023-04-29T07:42:47;11.40;99.90
51853;DHT22;37894;53.172;6.598;2023-04-29T07:45:13;11.70;99.90
51853;DHT22;37894;53.172;6.598;2023-04-29T07:50:06;11.20;99.90
51853;DHT22;37894;53.172;6.598;2023-04-29T07:54:57;11.90;99.90
51853;DHT22;37894;53.172;6.598;2023-04-29T07:59:53;12.00;99.90
51853;DHT22;37894;53.172;6.598;2023-04-29T08:02:19;11.80;99.90
51853;DHT22;37894;53.172;6.598;2023-04-29T08:09:37;11.90;99.90
51853;DHT22;37894;53.172;6.598;2023-04-29T08:12:03;12.50;99.90
51853;DHT22;37894;53.172;6.598;2023-04-29T08:16:55;12.40;99.90
51853;DHT22;37894;53.172;6.598;2023-04-29T08:21:47;12.90;99.90
51853;DHT22;37894;53.172;6.598;2023-04-29T08:24:13;12.40;99.90
51853;DHT22;37894;53.172;6.598;2023-04-29T08:26:39;12.70;99.90
51853;DHT22;37894;53.172;6.598;2023-04-29T08:31:31;12.90;99.90
51853;DHT22;37894;53.172;6.598;2023-04-29T08:33:58;13.00;99.90
51853;DHT22;37894;53.172;6.598;2023-04-29T08:38:53;12.50;99.90
51853;DHT22;37894;53.172;6.598;2023-04-29T08:41:19;12.50;99.90
51853;DHT22;37894;53.172;6.598;2023-04-29T08:43:45;13.90;99.90
51853;DHT22;37894;53.172;6.598;2023-04-29T08:46:11;13.50;99.90
51853;DHT22;37894;53.172;6.598;2023-04-29T08:48:37;13.30;99.90
51853;DHT22;37894;53.172;6.598;2023-04-29T08:51:05;13.30;99.90
51853;DHT22;37894;53.172;6.598;2023-04-29T08:53:31;13.20;99.90
51853;DHT22;37894;53.172;6.598;2023-04-29T08:56:02;14.20;99.90
51853;DHT22;37894;53.172;6.598;2023-04-29T08:58:33;14.50;99.90
51853;DHT22;37894;53.172;6.598;2023-04-29T09:47:07;15.20;99.90
51853;DHT22;37894;53.172;6.598;2023-04-29T09:49:41;15.10;99.90
51853;DHT22;37894;53.172;6.598;2023-04-29T09:54:34;15.20;99.90
51853;DHT22;37894;53.172;6.598;2023-04-29T09:57:04;15.30;99.90
51853;DHT22;37894;53.172;6.598;2023-04-29T09:59:35;15.30;99.90
51853;DHT22;37894;53.172;6.598;2023-04-29T10:02:01;15.70;99.90
51853;DHT22;37894;53.172;6.598;2023-04-29T10:04:34;15.60;99.90
51853;DHT22;37894;53.172;6.598;2023-04-29T10:07:01;15.30;99.90
51853;DHT22;37894;53.172;6.598;2023-04-29T10:09:27;15.10;99.90
51853;DHT22;37894;53.172;6.598;2023-04-29T10:11:53;15.50;99.90
51853;DHT22;37894;53.172;6.598;2023-04-29T10:14:21;15.60;99.90
51853;DHT22;37894;53.172;6.598;2023-04-29T10:17:07;15.20;99.90
51853;DHT22;37894;53.172;6.598;2023-04-29T10:22:33;15.90;99.90
51853;DHT22;37894;53.172;6.598;2023-04-29T10:25:00;15.60;99.90
51853;DHT22;37894;53.172;6.598;2023-04-29T10:27:28;15.90;99.90
51853;DHT22;37894;53.172;6.598;2023-04-29T10:29:55;15.90;99.90
51853;DHT22;37894;53.172;6.598;2023-04-29T10:32:24;15.20;99.90
51853;DHT22;37894;53.172;6.598;2023-04-29T10:34:52;15.80;99.90
51853;DHT22;37894;53.172;6.598;2023-04-29T10:37:20;15.90;99.90
51853;DHT22;37894;53.172;6.598;2023-04-29T10:39:56;16.40;99.90
51853;DHT22;37894;53.172;6.598;2023-04-29T10:42:43;16.20;99.90
51853;DHT22;37894;53.172;6.598;2023-04-29T10:45:25;16.60;99.90
51853;DHT22;37894;53.172;6.598;2023-04-29T10:53:04;16.50;99.90
51853;DHT22;37894;53.172;6.598;2023-04-29T10:55:31;16.40;99.90
51853;DHT22;37894;53.172;6.598;2023-04-29T10:58:02;16.60;99.90
51853;DHT22;37894;53.172;6.598;2023-04-29T11:00:30;16.60;99.90
51853;DHT22;37894;53.172;6.598;2023-04-29T11:02:57;16.80;97.60
51853;DHT22;37894;53.172;6.598;2023-04-29T11:05:34;16.50;99.90
51853;DHT22;37894;53.172;6.598;2023-04-29T11:08:09;16.90;99.90
51853;DHT22;37894;53.172;6.598;2023-04-29T11:10:40;17.70;99.70
51853;DHT22;37894;53.172;6.598;2023-04-29T11:13:25;17.00;97.90
51853;DHT22;37894;53.172;6.598;2023-04-29T11:18:33;17.00;97.20
51853;DHT22;37894;53.172;6.598;2023-04-29T11:23:34;17.20;94.40
51853;DHT22;37894;53.172;6.598;2023-04-29T11:26:01;17.50;95.80
51853;DHT22;37894;53.172;6.598;2023-04-29T11:28:30;17.50;93.80
51853;DHT22;37894;53.172;6.598;2023-04-29T11:30:56;17.40;92.40
51853;DHT22;37894;53.172;6.598;2023-04-29T11:33:26;17.20;91.60
51853;DHT22;37894;53.172;6.598;2023-04-29T11:35:55;17.40;91.00
51853;DHT22;37894;53.172;6.598;2023-04-29T11:38:28;18.10;90.60
51853;DHT22;37894;53.172;6.598;2023-04-29T11:40:59;17.70;91.30
51853;DHT22;37894;53.172;6.598;2023-04-29T11:43:24;17.80;91.00
51853;DHT22;37894;53.172;6.598;2023-04-29T11:45:52;17.90;89.70
51853;DHT22;37894;53.172;6.598;2023-04-29T11:50:45;18.10;90.70
51853;DHT22;37894;53.172;6.598;2023-04-29T11:53:12;18.20;92.00
51853;DHT22;37894;53.172;6.598;2023-04-29T11:55:40;18.40;92.50
51853;DHT22;37894;53.172;6.598;2023-04-29T11:58:06;18.50;92.60
51853;DHT22;37894;53.172;6.598;2023-04-29T12:00:32;18.60;91.90
51853;DHT22;37894;53.172;6.598;2023-04-29T12:02:58;18.60;90.80
51853;DHT22;37894;53.172;6.598;2023-04-29T12:05:26;18.70;90.60
51853;DHT22;37894;53.172;6.598;2023-04-29T12:07:54;18.80;89.10
51853;DHT22;37894;53.172;6.598;2023-04-29T12:10:20;19.10;87.30
51853;DHT22;37894;53.172;6.598;2023-04-29T12:12:46;18.90;87.30
51853;DHT22;37894;53.172;6.598;2023-04-29T12:15:12;19.00;89.40
51853;DHT22;37894;53.172;6.598;2023-04-29T12:17:39;18.50;90.10
51853;DHT22;37894;53.172;6.598;2023-04-29T12:20:06;19.00;90.20
51853;DHT22;37894;53.172;6.598;2023-04-29T12:22:34;19.10;87.30
51853;DHT22;37894;53.172;6.598;2023-04-29T12:25:02;19.20;84.10
51853;DHT22;37894;53.172;6.598;2023-04-29T12:27:28;19.20;84.40
51853;DHT22;37894;53.172;6.598;2023-04-29T12:29:56;19.40;83.90
51853;DHT22;37894;53.172;6.598;2023-04-29T12:32:23;19.50;83.70
51853;DHT22;37894;53.172;6.598;2023-04-29T12:34:50;19.60;82.90
51853;DHT22;37894;53.172;6.598;2023-04-29T12:37:17;19.70;79.90
51853;DHT22;37894;53.172;6.598;2023-04-29T12:39:43;19.80;79.20
51853;DHT22;37894;53.172;6.598;2023-04-29T12:42:14;19.90;78.90
51853;DHT22;37894;53.172;6.598;2023-04-29T12:44:47;20.10;77.40
51853;DHT22;37894;53.172;6.598;2023-04-29T12:47:13;20.50;74.00
51853;DHT22;37894;53.172;6.598;2023-04-29T12:49:46;20.20;76.20
51853;DHT22;37894;53.172;6.598;2023-04-29T12:52:12;20.40;72.00
51853;DHT22;37894;53.172;6.598;2023-04-29T12:54:39;20.60;72.40
51853;DHT22;37894;53.172;6.598;2023-04-29T12:57:08;20.40;73.30
51853;DHT22;37894;53.172;6.598;2023-04-29T12:59:35;20.60;72.30
51853;DHT22;37894;53.172;6.598;2023-04-29T13:02:01;20.70;72.20
51853;DHT22;37894;53.172;6.598;2023-04-29T13:04:26;20.70;73.90
51853;DHT22;37894;53.172;6.598;2023-04-29T13:06:55;21.50;76.40
51853;DHT22;37894;53.172;6.598;2023-04-29T13:09:28;21.00;74.20
51853;DHT22;37894;53.172;6.598;2023-04-29T13:11:54;21.20;74.00
51853;DHT22;37894;53.172;6.598;2023-04-29T13:14:21;21.40;73.50
51853;DHT22;37894;53.172;6.598;2023-04-29T13:16:46;21.60;72.50
51853;DHT22;37894;53.172;6.598;2023-04-29T13:19:12;21.60;71.40
51853;DHT22;37894;53.172;6.598;2023-04-29T13:21:38;21.70;71.50
51853;DHT22;37894;53.172;6.598;2023-04-29T13:24:04;21.80;71.60
51853;DHT22;37894;53.172;6.598;2023-04-29T13:26:30;22.00;72.20
51853;DHT22;37894;53.172;6.598;2023-04-29T13:28:56;21.90;71.80
51853;DHT22;37894;53.172;6.598;2023-04-29T13:31:21;22.50;72.10
51853;DHT22;37894;53.172;6.598;2023-04-29T13:33:47;22.60;71.60
51853;DHT22;37894;53.172;6.598;2023-04-29T13:36:13;22.80;70.10
51853;DHT22;37894;53.172;6.598;2023-04-29T13:38:39;22.90;73.40
51853;DHT22;37894;53.172;6.598;2023-04-29T13:41:05;22.80;70.80
51853;DHT22;37894;53.172;6.598;2023-04-29T13:43:31;22.80;70.70
51853;DHT22;37894;53.172;6.598;2023-04-29T13:45:56;22.80;71.50
51853;DHT22;37894;53.172;6.598;2023-04-29T13:48:23;22.90;71.50
51853;DHT22;37894;53.172;6.598;2023-04-29T13:50:48;22.00;72.90
51853;DHT22;37894;53.172;6.598;2023-04-29T13:53:14;22.30;74.00
51853;DHT22;37894;53.172;6.598;2023-04-29T13:55:41;22.70;74.90
51853;DHT22;37894;53.172;6.598;2023-04-29T13:58:07;22.40;72.20
51853;DHT22;37894;53.172;6.598;2023-04-29T14:00:33;22.40;71.80
51853;DHT22;37894;53.172;6.598;2023-04-29T14:02:58;22.50;72.30
51853;DHT22;37894;53.172;6.598;2023-04-29T14:05:24;22.60;73.90
51853;DHT22;37894;53.172;6.598;2023-04-29T14:07:50;22.00;72.10
51853;DHT22;37894;53.172;6.598;2023-04-29T14:10:16;21.40;71.00
51853;DHT22;37894;53.172;6.598;2023-04-29T14:15:08;19.10;77.60
51853;DHT22;37894;53.172;6.598;2023-04-29T14:20:01;18.80;76.90
51853;DHT22;37894;53.172;6.598;2023-04-29T14:22:27;18.50;81.40
51853;DHT22;37894;53.172;6.598;2023-04-29T14:24:53;18.20;83.10
51853;DHT22;37894;53.172;6.598;2023-04-29T14:34:38;17.10;86.00
51853;DHT22;37894;53.172;6.598;2023-04-29T14:37:04;16.80;87.70
51853;DHT22;37894;53.172;6.598;2023-04-29T14:44:22;16.40;90.10
51853;DHT22;37894;53.172;6.598;2023-04-29T14:49:13;16.90;90.90
51853;DHT22;37894;53.172;6.598;2023-04-29T14:51:39;15.80;91.20
51853;DHT22;37894;53.172;6.598;2023-04-29T14:54:04;16.60;91.70
51853;DHT22;37894;53.172;6.598;2023-04-29T14:56:30;15.80;91.10
51853;DHT22;37894;53.172;6.598;2023-04-29T15:01:22;14.20;92.10
51853;DHT22;37894;53.172;6.598;2023-04-29T15:03:48;15.10;92.50
51853;DHT22;37894;53.172;6.598;2023-04-29T15:06:13;15.40;93.40
51853;DHT22;37894;53.172;6.598;2023-04-29T15:08:39;15.50;93.90
51853;DHT22;37894;53.172;6.598;2023-04-29T15:11:05;15.30;94.20
51853;DHT22;37894;53.172;6.598;2023-04-29T15:18:23;15.00;94.80
51853;DHT22;37894;53.172;6.598;2023-04-29T15:20:50;14.90;95.00
51853;DHT22;37894;53.172;6.598;2023-04-29T15:28:08;15.00;95.60
51853;DHT22;37894;53.172;6.598;2023-04-29T15:30:34;15.20;96.30
51853;DHT22;37894;53.172;6.598;2023-04-29T15:33:01;15.40;96.70
51853;DHT22;37894;53.172;6.598;2023-04-29T15:35:26;15.30;97.00
51853;DHT22;37894;53.172;6.598;2023-04-29T15:37:52;14.50;95.00
51853;DHT22;37894;53.172;6.598;2023-04-29T15:40:19;14.40;96.60
51853;DHT22;37894;53.172;6.598;2023-04-29T15:42:45;14.10;96.90
51853;DHT22;37894;53.172;6.598;2023-04-29T15:45:11;14.50;97.40
51853;DHT22;37894;53.172;6.598;2023-04-29T15:47:37;15.00;97.90
51853;DHT22;37894;53.172;6.598;2023-04-29T15:50:03;14.10;97.80
51853;DHT22;37894;53.172;6.598;2023-04-29T15:57:20;14.10;97.60
51853;DHT22;37894;53.172;6.598;2023-04-29T15:59:46;14.40;98.80
51853;DHT22;37894;53.172;6.598;2023-04-29T16:02:12;13.90;99.10
51853;DHT22;37894;53.172;6.598;2023-04-29T16:04:39;14.40;99.40
51853;DHT22;37894;53.172;6.598;2023-04-29T16:09:32;13.90;99.70
51853;DHT22;37894;53.172;6.598;2023-04-29T16:11:58;14.20;99.90
51853;DHT22;37894;53.172;6.598;2023-04-29T16:16:50;13.70;99.90
51853;DHT22;37894;53.172;6.598;2023-04-29T16:19:15;13.80;99.90
51853;DHT22;37894;53.172;6.598;2023-04-29T16:24:12;13.30;98.70
51853;DHT22;37894;53.172;6.598;2023-04-29T16:26:38;12.80;99.90
51853;DHT22;37894;53.172;6.598;2023-04-29T16:29:05;13.10;99.90
51853;DHT22;37894;53.172;6.598;2023-04-29T16:31:31;13.30;99.90
51853;DHT22;37894;53.172;6.598;2023-04-29T16:36:23;13.40;99.90
51853;DHT22;37894;53.172;6.598;2023-04-29T16:38:50;12.80;99.90
51853;DHT22;37894;53.172;6.598;2023-04-29T16:51:03;13.20;99.90
51853;DHT22;37894;53.172;6.598;2023-04-29T17:00:48;12.40;99.90
51853;DHT22;37894;53.172;6.598;2023-04-29T17:03:14;12.90;99.90
51853;DHT22;37894;53.172;6.598;2023-04-29T17:05:40;12.60;99.90
51853;DHT22;37894;53.172;6.598;2023-04-29T17:12:58;12.90;99.90
51853;DHT22;37894;53.172;6.598;2023-04-29T17:17:50;13.30;99.90
51853;DHT22;37894;53.172;6.598;2023-04-29T17:20:16;12.30;99.90
51853;DHT22;37894;53.172;6.598;2023-04-29T17:25:09;12.00;99.90
51853;DHT22;37894;53.172;6.598;2023-04-29T17:32:27;12.40;99.90
51853;DHT22;37894;53.172;6.598;2023-04-29T17:34:58;12.20;99.90
51853;DHT22;37894;53.172;6.598;2023-04-29T17:39:50;12.30;99.90
51853;DHT22;37894;53.172;6.598;2023-04-29T17:44:46;12.30;99.90
51853;DHT22;37894;53.172;6.598;2023-04-29T17:47:12;12.60;99.90
51853;DHT22;37894;53.172;6.598;2023-04-29T17:54:31;11.60;99.90
51853;DHT22;37894;53.172;6.598;2023-04-29T17:59:26;12.50;99.90
51853;DHT22;37894;53.172;6.598;2023-04-29T18:01:53;12.10;99.90
51853;DHT22;37894;53.172;6.598;2023-04-29T18:11:37;12.20;99.90
51853;DHT22;37894;53.172;6.598;2023-04-29T18:14:03;11.70;99.90
51853;DHT22;37894;53.172;6.598;2023-04-29T18:18:55;12.10;99.90
51853;DHT22;37894;53.172;6.598;2023-04-29T18:21:22;12.20;99.90
51853;DHT22;37894;53.172;6.598;2023-04-29T18:23:48;11.70;99.90
51853;DHT22;37894;53.172;6.598;2023-04-29T18:28:40;11.90;99.90
51853;DHT22;37894;53.172;6.598;2023-04-29T18:31:06;12.50;99.90
51853;DHT22;37894;53.172;6.598;2023-04-29T18:33:32;10.70;99.90
51853;DHT22;37894;53.172;6.598;2023-04-29T18:35:58;11.30;99.90
51853;DHT22;37894;53.172;6.598;2023-04-29T18:38:24;11.10;99.90
51853;DHT22;37894;53.172;6.598;2023-04-29T18:45:43;11.00;99.90
51853;DHT22;37894;53.172;6.598;2023-04-29T18:55:32;11.00;99.90
51853;DHT22;37894;53.172;6.598;2023-04-29T18:57:58;11.80;99.90
51853;DHT22;37894;53.172;6.598;2023-04-29T19:00:24;10.50;99.90
51853;DHT22;37894;53.172;6.598;2023-04-29T19:10:08;9.60;99.90
51853;DHT22;37894;53.172;6.598;2023-04-29T19:12:34;10.70;99.90
51853;DHT22;37894;53.172;6.598;2023-04-29T19:17:26;10.40;99.90
51853;DHT22;37894;53.172;6.598;2023-04-29T19:24:45;10.40;99.90
51853;DHT22;37894;53.172;6.598;2023-04-29T19:27:10;10.10;99.90
51853;DHT22;37894;53.172;6.598;2023-04-29T19:32:03;10.70;99.90
51853;DHT22;37894;53.172;6.598;2023-04-29T19:36:55;10.90;99.90
51853;DHT22;37894;53.172;6.598;2023-04-29T19:51:32;9.60;99.90
51853;DHT22;37894;53.172;6.598;2023-04-29T19:53:57;10.00;99.90
51853;DHT22;37894;53.172;6.598;2023-04-29T20:13:29;9.70;99.90
51853;DHT22;37894;53.172;6.598;2023-04-29T20:15:55;9.90;99.90
51853;DHT22;37894;53.172;6.598;2023-04-29T20:30:34;10.20;99.90
51853;DHT22;37894;53.172;6.598;2023-04-29T20:33:00;10.00;99.90
51853;DHT22;37894;53.172;6.598;2023-04-29T20:37:52;9.20;99.90
51853;DHT22;37894;53.172;6.598;2023-04-29T20:47:38;8.40;99.90
51853;DHT22;37894;53.172;6.598;2023-04-29T20:50:04;9.20;99.90
51853;DHT22;37894;53.172;6.598;2023-04-29T20:52:32;8.40;99.90
51853;DHT22;37894;53.172;6.598;2023-04-29T20:54:59;9.50;99.90
51853;DHT22;37894;53.172;6.598;2023-04-29T20:57:25;8.70;99.90
51853;DHT22;37894;53.172;6.598;2023-04-29T20:59:52;8.20;99.90
51853;DHT22;37894;53.172;6.598;2023-04-29T21:02:18;7.60;99.90
51853;DHT22;37894;53.172;6.598;2023-04-29T21:07:10;8.00;99.90
51853;DHT22;37894;53.172;6.598;2023-04-29T21:09:36;8.50;99.90
51853;DHT22;37894;53.172;6.598;2023-04-29T21:12:02;8.00;99.90
51853;DHT22;37894;53.172;6.598;2023-04-29T21:16:55;7.70;99.90
51853;DHT22;37894;53.172;6.598;2023-04-29T21:21:47;9.00;99.90
51853;DHT22;37894;53.172;6.598;2023-04-29T21:24:14;7.90;99.90
51853;DHT22;37894;53.172;6.598;2023-04-29T21:26:39;8.10;99.90
51853;DHT22;37894;53.172;6.598;2023-04-29T21:31:32;8.10;99.90
51853;DHT22;37894;53.172;6.598;2023-04-29T21:33:57;7.70;99.90
51853;DHT22;37894;53.172;6.598;2023-04-29T21:36:25;8.00;99.90
51853;DHT22;37894;53.172;6.598;2023-04-29T21:38:51;7.90;99.90
51853;DHT22;37894;53.172;6.598;2023-04-29T21:41:26;7.60;99.90
51853;DHT22;37894;53.172;6.598;2023-04-29T21:43:57;7.40;99.90
51853;DHT22;37894;53.172;6.598;2023-04-29T21:46:24;7.30;99.90
51853;DHT22;37894;53.172;6.598;2023-04-29T21:48:54;7.40;99.90
51853;DHT22;37894;53.172;6.598;2023-04-29T21:51:21;7.60;99.90
51853;DHT22;37894;53.172;6.598;2023-04-29T21:53:48;7.40;99.90
51853;DHT22;37894;53.172;6.598;2023-04-29T21:56:14;7.40;99.90
51853;DHT22;37894;53.172;6.598;2023-04-29T22:03:52;7.60;99.90
51853;DHT22;37894;53.172;6.598;2023-04-29T22:06:18;7.70;99.90
51853;DHT22;37894;53.172;6.598;2023-04-29T22:08:44;7.20;99.90
51853;DHT22;37894;53.172;6.598;2023-04-29T22:11:09;6.90;99.90
51853;DHT22;37894;53.172;6.598;2023-04-29T22:16:01;6.80;99.90
51853;DHT22;37894;53.172;6.598;2023-04-29T22:18:27;7.20;99.90
51853;DHT22;37894;53.172;6.598;2023-04-29T22:23:18;6.60;99.90
51853;DHT22;37894;53.172;6.598;2023-04-29T22:25:45;6.70;99.90
51853;DHT22;37894;53.172;6.598;2023-04-29T22:28:11;7.10;99.90
51853;DHT22;37894;53.172;6.598;2023-04-29T22:30:36;7.10;99.90
51853;DHT22;37894;53.172;6.598;2023-04-29T22:35:28;6.60;99.90
51853;DHT22;37894;53.172;6.598;2023-04-29T22:40:20;6.50;99.90
51853;DHT22;37894;53.172;6.598;2023-04-29T22:42:46;5.90;99.90
51853;DHT22;37894;53.172;6.598;2023-04-29T22:45:11;6.90;99.90
51853;DHT22;37894;53.172;6.598;2023-04-29T22:47:37;6.60;99.90
51853;DHT22;37894;53.172;6.598;2023-04-29T22:50:03;6.30;99.90
51853;DHT22;37894;53.172;6.598;2023-04-29T22:52:29;6.50;99.90
51853;DHT22;37894;53.172;6.598;2023-04-29T22:54:57;6.70;99.90
51853;DHT22;37894;53.172;6.598;2023-04-29T22:57:23;6.30;99.90
51853;DHT22;37894;53.172;6.598;2023-04-29T22:59:55;5.40;99.90
51853;DHT22;37894;53.172;6.598;2023-04-29T23:02:21;6.80;99.90
51853;DHT22;37894;53.172;6.598;2023-04-29T23:04:53;6.20;99.90
51853;DHT22;37894;53.172;6.598;2023-04-29T23:07:19;6.50;99.90
51853;DHT22;37894;53.172;6.598;2023-04-29T23:09:46;6.00;99.90
51853;DHT22;37894;53.172;6.598;2023-04-29T23:12:12;5.90;99.90
51853;DHT22;37894;53.172;6.598;2023-04-29T23:14:38;5.90;99.90
51853;DHT22;37894;53.172;6.598;2023-04-29T23:17:04;6.20;99.90
51853;DHT22;37894;53.172;6.598;2023-04-29T23:21:56;6.20;99.90
51853;DHT22;37894;53.172;6.598;2023-04-29T23:24:22;6.10;99.90
51853;DHT22;37894;53.172;6.598;2023-04-29T23:29:14;6.00;99.90
51853;DHT22;37894;53.172;6.598;2023-04-29T23:34:06;5.90;99.90
51853;DHT22;37894;53.172;6.598;2023-04-29T23:38:58;5.90;99.90
51853;DHT22;37894;53.172;6.598;2023-04-29T23:41:25;5.70;99.90
51853;DHT22;37894;53.172;6.598;2023-04-29T23:43:50;5.80;99.90
51853;DHT22;37894;53.172;6.598;2023-04-29T23:48:42;6.00;99.90
51853;DHT22;37894;53.172;6.598;2023-04-29T23:53:34;5.30;99.90
51853;DHT22;37894;53.172;6.598;2023-04-29T23:56:00;5.50;99.90
51853;DHT22;37894;53.172;6.598;2023-04-29T23:58:26;6.30;99.90
